Time;durP1;ratioP1;P1;durP2;ratioP2;P2;SDS_P1;SDS_P2;PMS_P1;PMS_P2;Temp;Humidity;BMP_temperature;BMP_pressure;BME280_temperature;BME280_humidity;BME280_pressure;Samples;Min_cycle;Max_cycle;Signal;HPM_P1;HPM_P2
2021/10/22 00:00:33;;;;;;;;;;;;;;;19.40;63.94;100107.00;2085624;28;19931;-62
2021/10/22 00:01:33;;;;;;;;;;;;;;;19.39;63.92;100099.81;2084473;28;19919;-62
2021/10/22 00:02:33;;;;;;;;;;;;;;;19.38;64.01;100095.38;2081043;28;19920;-62
2021/10/22 00:03:33;;;;;;;;;;;;;;;19.39;64.06;100102.56;2082047;28;19919;-62
2021/10/22 00:04:34;;;;;;;;;;;;;;;19.39;63.99;100097.09;2084690;28;19983;-62
2021/10/22 00:05:34;;;;;;;;;;;;;;;19.39;63.99;100102.56;2083822;28;20963;-62
2021/10/22 00:06:34;;;;;;;;;;;;;;;19.39;63.88;100097.09;2085706;28;19916;-61
2021/10/22 00:07:35;;;;;;;;;;;;;;;19.39;63.93;100105.28;2082057;28;20698;-62
2021/10/22 00:08:35;;;;;;;;;;;;;;;19.38;64.03;100095.38;2086079;28;19924;-61
2021/10/22 00:09:35;;;;;;;;;;;;;;;19.38;63.98;100095.38;2082506;28;20386;-62
2021/10/22 00:10:36;;;;;;;;;;;;;;;19.38;63.92;100095.38;2082979;28;20452;-62
2021/10/22 00:11:43;;;;;;;;;;;;;;;19.38;64.03;100089.91;2079333;28;19917;-62
2021/10/22 00:12:43;;;;;;;;;;;;;;;19.38;63.95;100096.25;2080846;28;19916;-62
2021/10/22 00:13:44;;;;;;;;;;;;;;;19.38;64.08;100096.25;2083217;28;19917;-61
2021/10/22 00:14:44;;;;;;;;;;;;;;;19.37;63.95;100091.75;2084442;28;19916;-62
2021/10/22 00:15:45;;;;;;;;;;;;;;;19.37;64.03;100088.19;2083523;28;19970;-62
2021/10/22 00:16:45;;;;;;;;;;;;;;;19.37;64.03;100090.91;2085617;28;19917;-62
2021/10/22 00:17:46;;;;;;;;;;;;;;;19.38;64.06;100090.78;2082128;28;19920;-61
2021/10/22 00:18:46;;;;;;;;;;;;;;;19.37;64.00;100093.66;2083434;28;19920;-62
2021/10/22 00:19:46;;;;;;;;;;;;;;;19.38;64.04;100093.50;2085675;28;19955;-62
2021/10/22 00:20:47;;;;;;;;;;;;;;;19.37;63.97;100089.03;2084326;28;20830;-61
2021/10/22 00:21:48;;;;;;;;;;;;;;;19.37;63.98;100089.03;2083849;28;19998;-62
2021/10/22 00:22:48;;;;;;;;;;;;;;;19.37;64.12;100080.84;2083590;28;19951;-62
2021/10/22 00:23:48;;;;;;;;;;;;;;;19.37;63.90;100082.72;2084658;28;19915;-62
2021/10/22 00:24:48;;;;;;;;;;;;;;;19.37;63.94;100082.72;2083269;28;19947;-61
2021/10/22 00:25:51;;;;;;;;;;;;;;;19.36;63.98;100081.84;2083022;28;20331;-61
2021/10/22 00:26:51;;;;;;;;;;;;;;;19.36;63.94;100075.53;2084850;28;19966;-62
2021/10/22 00:27:51;;;;;;;;;;;;;;;19.37;64.11;100083.56;2082245;28;20432;-62
2021/10/22 00:28:52;;;;;;;;;;;;;;;19.37;64.05;100082.72;2083372;28;19913;-61
2021/10/22 00:29:52;;;;;;;;;;;;;;;19.36;64.06;100084.59;2084662;28;19916;-61
2021/10/22 00:30:52;;;;;;;;;;;;;;;19.36;64.05;100087.31;2082021;28;20496;-61
2021/10/22 00:31:52;;;;;;;;;;;;;;;19.37;64.13;100085.44;2085079;28;20341;-62
2021/10/22 00:32:53;;;;;;;;;;;;;;;19.36;64.04;100083.75;2084667;28;20021;-62
2021/10/22 00:33:53;;;;;;;;;;;;;;;19.36;64.05;100092.78;2083888;28;19927;-62
2021/10/22 00:34:53;;;;;;;;;;;;;;;19.35;64.10;100091.06;2078915;28;20297;-62
2021/10/22 00:35:54;;;;;;;;;;;;;;;19.36;64.18;100086.47;2083076;28;19955;-62
2021/10/22 00:36:55;;;;;;;;;;;;;;;19.36;64.08;100089.19;2084713;28;20030;-62
2021/10/22 00:37:55;;;;;;;;;;;;;;;19.35;64.13;100085.59;2085000;28;19916;-62
2021/10/22 00:38:55;;;;;;;;;;;;;;;19.36;64.17;100086.47;2083390;28;19970;-62
2021/10/22 00:39:56;;;;;;;;;;;;;;;19.36;64.13;100090.06;2086147;28;19979;-62
2021/10/22 00:40:56;;;;;;;;;;;;;;;19.36;64.14;100089.19;2084108;28;20590;-61
2021/10/22 00:41:56;;;;;;;;;;;;;;;19.36;64.15;100086.47;2081944;28;19920;-62
2021/10/22 00:42:57;;;;;;;;;;;;;;;19.36;64.17;100086.47;2085865;28;19982;-62
2021/10/22 00:43:57;;;;;;;;;;;;;;;19.36;64.15;100091.94;2075044;28;19917;-62
2021/10/22 00:44:58;;;;;;;;;;;;;;;19.36;64.10;100081.00;2074157;28;19912;-62
2021/10/22 00:45:59;;;;;;;;;;;;;;;19.36;64.09;100091.94;2086824;28;19905;-61
2021/10/22 00:46:59;;;;;;;;;;;;;;;19.36;64.19;100091.94;2082027;28;19958;-62
2021/10/22 00:47:59;;;;;;;;;;;;;;;19.35;63.98;100084.72;2078687;28;19916;-62
2021/10/22 00:49:00;;;;;;;;;;;;;;;19.35;63.99;100084.72;2086550;28;20264;-61
2021/10/22 00:50:00;;;;;;;;;;;;;;;19.35;64.01;100079.25;2073027;28;20612;-61
2021/10/22 00:51:01;;;;;;;;;;;;;;;19.34;64.02;100078.41;2071037;28;20442;-61
2021/10/22 00:52:01;;;;;;;;;;;;;;;19.34;64.11;100081.13;2083176;28;19951;-62
2021/10/22 00:53:01;;;;;;;;;;;;;;;19.34;64.04;100077.56;2085838;28;20007;-62
2021/10/22 00:54:06;;;;;;;;;;;;;;;19.35;64.06;100079.25;2085903;28;20986;-61
2021/10/22 00:55:08;;;;;;;;;;;;;;;19.34;64.12;100072.09;2084686;28;19924;-61
2021/10/22 00:56:09;;;;;;;;;;;;;;;19.33;64.10;100076.69;2084547;28;19927;-62
2021/10/22 00:57:12;;;;;;;;;;;;;;;19.34;64.08;100072.94;2085022;28;19920;-62
2021/10/22 00:58:13;;;;;;;;;;;;;;;19.34;64.11;100083.03;2079193;28;19920;-62
2021/10/22 00:59:13;;;;;;;;;;;;;;;19.34;64.12;100074.81;2075602;28;19992;-61
2021/10/22 01:00:14;;;;;;;;;;;;;;;19.34;63.97;100083.88;2074300;28;19920;-62
2021/10/22 01:01:14;;;;;;;;;;;;;;;19.34;64.12;100072.09;2084398;28;19921;-62
2021/10/22 01:02:14;;;;;;;;;;;;;;;19.32;64.05;100069.50;2084996;28;19916;-62
2021/10/22 01:03:15;;;;;;;;;;;;;;;19.33;64.09;100087.63;2083887;28;19928;-61
2021/10/22 01:04:16;;;;;;;;;;;;;;;19.33;64.10;100076.69;2078010;28;19917;-62
2021/10/22 01:05:16;;;;;;;;;;;;;;;19.34;64.01;100083.88;2074373;28;20483;-61
2021/10/22 01:06:17;;;;;;;;;;;;;;;19.33;64.10;100081.28;2083119;28;19924;-62
2021/10/22 01:07:17;;;;;;;;;;;;;;;19.33;64.09;100075.81;2084081;28;19928;-61
2021/10/22 01:08:18;;;;;;;;;;;;;;;19.33;64.04;100082.16;2083590;28;19916;-61
2021/10/22 01:09:19;;;;;;;;;;;;;;;19.33;64.17;100075.81;2081969;28;19920;-62
2021/10/22 01:10:19;;;;;;;;;;;;;;;19.32;64.08;100083.16;2085787;28;19920;-61
2021/10/22 01:11:20;;;;;;;;;;;;;;;19.32;64.10;100079.56;2077570;28;19912;-61
2021/10/22 01:12:20;;;;;;;;;;;;;;;19.33;64.14;100092.22;2076680;28;19963;-61
2021/10/22 01:13:20;;;;;;;;;;;;;;;19.32;64.03;100087.78;2081264;28;19916;-61
2021/10/22 01:14:21;;;;;;;;;;;;;;;19.32;64.10;100085.03;2081100;28;19959;-62
2021/10/22 01:15:21;;;;;;;;;;;;;;;19.33;64.05;100089.47;2078011;28;20351;-61
2021/10/22 01:16:22;;;;;;;;;;;;;;;19.32;64.13;100079.56;2078908;28;20357;-62
2021/10/22 01:17:43;;;;;;;;;;;;;;;19.33;64.09;100075.81;2083148;28;19964;-61
2021/10/22 01:18:46;;;;;;;;;;;;;;;19.32;64.05;100074.97;2080362;28;20003;-62
2021/10/22 01:19:47;;;;;;;;;;;;;;;19.32;64.09;100080.44;2086224;28;20365;-62
2021/10/22 01:20:47;;;;;;;;;;;;;;;19.32;64.11;100080.44;2082545;28;19916;-61
2021/10/22 01:21:48;;;;;;;;;;;;;;;19.32;64.15;100079.56;2083961;28;19927;-62
2021/10/22 01:22:50;;;;;;;;;;;;;;;19.32;64.09;100079.56;2082391;28;19916;-62
2021/10/22 01:23:50;;;;;;;;;;;;;;;19.32;64.08;100074.97;2083307;28;19974;-62
2021/10/22 01:24:52;;;;;;;;;;;;;;;19.31;64.12;100077.88;2079691;28;19920;-62
2021/10/22 01:25:52;;;;;;;;;;;;;;;19.31;64.13;100077.88;2084385;28;19948;-61
2021/10/22 01:26:52;;;;;;;;;;;;;;;19.31;64.20;100078.72;2080356;28;19920;-62
2021/10/22 01:27:54;;;;;;;;;;;;;;;19.31;64.09;100080.59;2080351;28;20616;-62
2021/10/22 01:28:54;;;;;;;;;;;;;;;19.30;64.17;100076.97;2083677;28;19923;-61
2021/10/22 01:29:54;;;;;;;;;;;;;;;19.31;64.13;100073.25;2087685;28;19969;-62
2021/10/22 01:30:54;;;;;;;;;;;;;;;19.30;63.98;100074.25;2084272;28;20120;-61
2021/10/22 01:31:55;;;;;;;;;;;;;;;19.31;64.05;100072.41;2086013;28;19916;-62
2021/10/22 01:33:01;;;;;;;;;;;;;;;19.30;64.13;100070.66;2082707;28;19917;-61
2021/10/22 01:34:01;;;;;;;;;;;;;;;19.29;64.14;100069.81;2083566;28;20089;-62
2021/10/22 01:35:02;;;;;;;;;;;;;;;19.30;64.05;100074.25;2089542;28;19917;-62
2021/10/22 01:36:03;;;;;;;;;;;;;;;19.30;64.06;100070.66;2083799;28;20101;-62
2021/10/22 01:37:03;;;;;;;;;;;;;;;19.30;64.12;100076.13;2084031;28;19916;-61
2021/10/22 01:38:04;;;;;;;;;;;;;;;19.30;64.14;100071.50;2078665;28;19917;-62
2021/10/22 01:39:04;;;;;;;;;;;;;;;19.30;64.02;100070.66;2082232;28;20329;-62
2021/10/22 01:40:05;;;;;;;;;;;;;;;19.30;64.08;100067.94;2081357;28;20268;-62
2021/10/22 01:41:06;;;;;;;;;;;;;;;19.30;64.17;100073.41;2078735;28;19923;-62
2021/10/22 01:42:07;;;;;;;;;;;;;;;19.30;64.15;100070.66;2082713;28;19920;-62
2021/10/22 01:43:07;;;;;;;;;;;;;;;19.28;64.18;100074.41;2083616;28;20815;-62
2021/10/22 01:44:12;;;;;;;;;;;;;;;19.30;64.15;100076.13;2078721;28;19916;-62
2021/10/22 01:45:12;;;;;;;;;;;;;;;19.30;64.15;100076.13;2083543;28;19921;-62
2021/10/22 01:46:12;;;;;;;;;;;;;;;19.29;64.23;100075.28;2078808;28;19919;-62
2021/10/22 01:47:13;;;;;;;;;;;;;;;19.30;64.31;100081.59;2081370;28;19912;-61
2021/10/22 01:48:13;;;;;;;;;;;;;;;19.30;64.23;100078.84;2080745;28;20581;-62
2021/10/22 01:49:14;;;;;;;;;;;;;;;19.30;64.25;100081.59;2080837;28;19917;-61
2021/10/22 01:50:14;;;;;;;;;;;;;;;19.30;64.32;100081.59;2078916;28;20878;-61
2021/10/22 01:51:15;;;;;;;;;;;;;;;19.28;64.39;100079.88;2078215;28;19925;-61
2021/10/22 01:52:15;;;;;;;;;;;;;;;19.30;64.34;100081.59;2077260;28;19916;-62
2021/10/22 01:53:17;;;;;;;;;;;;;;;19.29;64.34;100083.47;2082183;28;19924;-62
2021/10/22 01:54:17;;;;;;;;;;;;;;;19.30;64.32;100081.59;2082062;28;20691;-61
2021/10/22 01:55:17;;;;;;;;;;;;;;;19.28;64.33;100074.41;2084645;28;20306;-62
2021/10/22 01:56:18;;;;;;;;;;;;;;;19.29;64.33;100072.53;2081999;28;19967;-62
2021/10/22 01:57:18;;;;;;;;;;;;;;;19.28;64.35;100073.56;2084486;28;19927;-62
2021/10/22 01:58:18;;;;;;;;;;;;;;;19.28;64.42;100074.41;2079829;28;19921;-61
2021/10/22 01:59:19;;;;;;;;;;;;;;;19.27;64.41;100066.38;2083987;28;19939;-61
2021/10/22 02:00:22;;;;;;;;;;;;;;;19.27;64.36;100078.16;2074232;28;20032;-61
2021/10/22 02:01:22;;;;;;;;;;;;;;;19.28;64.48;100073.56;2071624;28;19947;-61
2021/10/22 02:02:22;;;;;;;;;;;;;;;19.27;64.46;100075.41;2079881;28;20379;-62
2021/10/22 02:03:23;;;;;;;;;;;;;;;19.27;64.43;100075.41;2080534;28;20326;-61
2021/10/22 02:04:23;;;;;;;;;;;;;;;19.27;64.45;100080.88;2081138;28;19924;-61
2021/10/22 02:05:23;;;;;;;;;;;;;;;19.27;64.36;100072.69;2082827;28;19917;-62
2021/10/22 02:06:24;;;;;;;;;;;;;;;19.26;64.40;100076.44;2081097;28;19917;-62
2021/10/22 02:07:24;;;;;;;;;;;;;;;19.27;64.45;100075.41;2078229;28;20123;-61
2021/10/22 02:08:24;;;;;;;;;;;;;;;19.27;64.41;100071.81;2079347;28;19963;-62
2021/10/22 02:09:25;;;;;;;;;;;;;;;19.28;64.57;100079.03;2078423;28;19916;-61
2021/10/22 02:10:25;;;;;;;;;;;;;;;19.27;64.44;100077.28;2079168;28;19917;-61
2021/10/22 02:11:25;;;;;;;;;;;;;;;19.25;64.46;100080.16;2078870;28;19924;-62
2021/10/22 02:12:26;;;;;;;;;;;;;;;19.26;64.34;100079.16;2084137;28;19954;-61
2021/10/22 02:13:28;;;;;;;;;;;;;;;19.27;64.42;100067.22;2082889;28;20679;-61
2021/10/22 02:14:29;;;;;;;;;;;;;;;19.26;64.44;100076.44;2084008;28;19916;-62
2021/10/22 02:15:29;;;;;;;;;;;;;;;19.26;64.71;100081.06;2084386;28;19942;-61
2021/10/22 02:16:29;;;;;;;;;;;;;;;19.26;64.54;100081.91;2083222;28;19909;-61
2021/10/22 02:17:30;;;;;;;;;;;;;;;19.26;64.41;100075.59;2083572;28;19916;-61
2021/10/22 02:18:30;;;;;;;;;;;;;;;19.26;64.53;100070.97;2084166;28;20309;-61
2021/10/22 02:19:30;;;;;;;;;;;;;;;19.26;64.68;100073.72;2080125;28;19909;-61
2021/10/22 02:20:31;;;;;;;;;;;;;;;19.26;64.60;100070.97;2080455;28;20058;-61
2021/10/22 02:21:31;;;;;;;;;;;;;;;19.26;64.59;100076.44;2085532;28;19927;-62
2021/10/22 02:22:31;;;;;;;;;;;;;;;19.26;64.63;100081.06;2080244;28;20610;-63
2021/10/22 02:23:32;;;;;;;;;;;;;;;19.26;64.53;100076.44;2084219;28;20451;-61
2021/10/22 02:24:32;;;;;;;;;;;;;;;19.26;64.56;100081.06;2079484;28;19924;-61
2021/10/22 02:25:32;;;;;;;;;;;;;;;19.25;64.62;100082.91;2063524;28;19917;-61
2021/10/22 02:26:33;;;;;;;;;;;;;;;19.26;64.61;100081.91;2065907;28;19917;-62
2021/10/22 02:27:34;;;;;;;;;;;;;;;19.26;64.58;100081.06;2083353;28;19923;-62
2021/10/22 02:28:34;;;;;;;;;;;;;;;19.25;64.60;100071.97;2078766;28;19917;-61
2021/10/22 02:29:35;;;;;;;;;;;;;;;19.25;64.56;100074.69;2082356;28;19916;-61
2021/10/22 02:30:35;;;;;;;;;;;;;;;19.25;64.50;100074.69;2069370;28;20539;-61
2021/10/22 02:31:35;;;;;;;;;;;;;;;19.24;64.55;100075.72;2073341;28;20196;-62
2021/10/22 02:32:36;;;;;;;;;;;;;;;19.25;64.59;100069.22;2083030;28;20561;-62
2021/10/22 02:33:36;;;;;;;;;;;;;;;19.23;64.54;100071.28;2081513;28;20784;-61
2021/10/22 02:34:36;;;;;;;;;;;;;;;19.24;64.42;100062.06;2082082;28;19980;-62
2021/10/22 02:35:38;;;;;;;;;;;;;;;19.24;64.65;100066.66;2084586;28;19924;-61
2021/10/22 02:36:38;;;;;;;;;;;;;;;19.24;64.57;100067.53;2082165;28;19951;-62
2021/10/22 02:37:38;;;;;;;;;;;;;;;19.25;64.49;100069.22;2082607;28;20165;-62
2021/10/22 02:38:39;;;;;;;;;;;;;;;19.25;64.53;100076.56;2084010;28;19920;-62
2021/10/22 02:39:40;;;;;;;;;;;;;;;19.24;64.53;100073.00;2080868;28;20298;-62
2021/10/22 02:40:40;;;;;;;;;;;;;;;19.25;64.51;100068.38;2084955;28;19991;-61
2021/10/22 02:41:41;;;;;;;;;;;;;;;19.24;64.46;100073.00;2082471;28;19921;-61
2021/10/22 02:42:41;;;;;;;;;;;;;;;19.23;64.40;100071.28;2083884;28;19923;-62
2021/10/22 02:43:42;;;;;;;;;;;;;;;19.25;64.46;100076.56;2074263;28;19963;-61
2021/10/22 02:44:42;;;;;;;;;;;;;;;19.22;64.50;100069.53;2071961;28;21164;-62
2021/10/22 02:45:42;;;;;;;;;;;;;;;19.23;64.61;100076.75;2081153;28;20444;-61
2021/10/22 02:46:43;;;;;;;;;;;;;;;19.24;64.48;100081.19;2082525;28;20378;-60
2021/10/22 02:47:43;;;;;;;;;;;;;;;19.23;64.39;100076.75;2087331;28;20275;-60
2021/10/22 02:48:43;;;;;;;;;;;;;;;19.24;64.46;100083.94;2080991;28;19942;-61
2021/10/22 02:49:43;;;;;;;;;;;;;;;19.23;64.44;100074.03;2078528;28;19917;-60
2021/10/22 02:50:44;;;;;;;;;;;;;;;19.24;64.45;100080.34;2081392;28;20014;-61
2021/10/22 02:51:44;;;;;;;;;;;;;;;19.24;64.38;100072.13;2082831;28;20626;-60
2021/10/22 02:52:44;;;;;;;;;;;;;;;19.23;64.40;100074.03;2072726;28;19952;-60
2021/10/22 02:53:45;;;;;;;;;;;;;;;19.23;64.45;100075.88;2074901;28;19917;-61
2021/10/22 02:54:45;;;;;;;;;;;;;;;19.22;64.49;100075.00;2082240;28;19924;-61
2021/10/22 02:55:45;;;;;;;;;;;;;;;19.24;64.33;100074.88;2084440;28;19997;-61
2021/10/22 02:56:45;;;;;;;;;;;;;;;19.22;64.37;100072.28;2083415;28;20448;-60
2021/10/22 02:57:46;;;;;;;;;;;;;;;19.23;64.39;100071.28;2081630;28;19913;-61
2021/10/22 02:58:47;;;;;;;;;;;;;;;19.23;64.39;100075.88;2080782;28;19943;-60
2021/10/22 02:59:47;;;;;;;;;;;;;;;19.23;64.41;100070.41;2081254;28;20367;-60
2021/10/22 03:00:47;;;;;;;;;;;;;;;19.22;64.49;100075.00;2083460;28;20656;-61
2021/10/22 03:01:48;;;;;;;;;;;;;;;19.22;64.34;100069.53;2082955;28;20641;-61
2021/10/22 03:02:48;;;;;;;;;;;;;;;19.23;64.34;100075.88;2081932;28;19955;-61
2021/10/22 03:03:48;;;;;;;;;;;;;;;19.22;64.34;100085.94;2085237;28;20194;-61
2021/10/22 03:04:48;;;;;;;;;;;;;;;19.22;64.33;100085.09;2082246;28;19930;-61
2021/10/22 03:05:49;;;;;;;;;;;;;;;19.22;64.36;100085.94;2084984;28;19909;-60
2021/10/22 03:06:49;;;;;;;;;;;;;;;19.22;64.40;100080.47;2093147;28;19951;-60
2021/10/22 03:07:49;;;;;;;;;;;;;;;19.22;64.36;100082.34;2087415;28;19955;-60
2021/10/22 03:08:50;;;;;;;;;;;;;;;19.22;64.32;100085.09;2085414;28;20287;-60
2021/10/22 03:09:50;;;;;;;;;;;;;;;19.22;64.38;100085.94;2084333;28;19951;-60
2021/10/22 03:10:50;;;;;;;;;;;;;;;19.22;64.52;100085.94;2075208;28;19917;-60
2021/10/22 03:11:51;;;;;;;;;;;;;;;19.21;64.30;100084.22;2078017;28;19948;-61
2021/10/22 03:12:51;;;;;;;;;;;;;;;19.21;64.31;100078.78;2084113;28;19920;-61
2021/10/22 03:13:51;;;;;;;;;;;;;;;19.21;64.46;100081.50;2086179;28;19912;-61
2021/10/22 03:14:52;;;;;;;;;;;;;;;19.21;64.40;100078.78;2087795;28;19912;-59
2021/10/22 03:15:52;;;;;;;;;;;;;;;19.21;64.55;100072.44;2084687;28;19916;-61
2021/10/22 03:16:52;;;;;;;;;;;;;;;19.21;64.40;100080.66;2088313;28;19912;-61
2021/10/22 03:17:54;;;;;;;;;;;;;;;19.21;64.57;100077.91;2090087;28;19924;-61
2021/10/22 03:18:55;;;;;;;;;;;;;;;19.20;64.43;100082.50;2084264;28;21338;-60
2021/10/22 03:19:55;;;;;;;;;;;;;;;19.20;64.35;100079.75;2080713;28;20329;-60
2021/10/22 03:20:55;;;;;;;;;;;;;;;19.20;64.30;100077.03;2082336;28;20393;-61
2021/10/22 03:21:56;;;;;;;;;;;;;;;19.19;64.25;100075.31;2083419;28;19966;-61
2021/10/22 03:22:56;;;;;;;;;;;;;;;19.19;64.04;100064.38;2081267;28;19916;-61
2021/10/22 03:23:56;;;;;;;;;;;;;;;19.19;64.24;100072.59;2082365;28;19944;-61
2021/10/22 03:24:57;;;;;;;;;;;;;;;19.19;64.16;100071.75;2085332;28;19946;-61
2021/10/22 03:25:57;;;;;;;;;;;;;;;19.19;64.16;100069.00;2084704;28;19993;-62
2021/10/22 03:26:57;;;;;;;;;;;;;;;19.20;64.14;100076.19;2088053;28;19954;-61
2021/10/22 03:28:04;;;;;;;;;;;;;;;19.19;64.10;100067.13;2084492;28;19905;-61
2021/10/22 03:29:04;;;;;;;;;;;;;;;19.18;64.11;100068.16;2080609;28;20692;-61
2021/10/22 03:30:05;;;;;;;;;;;;;;;19.18;64.18;100065.41;2087210;28;20008;-61
2021/10/22 03:31:06;;;;;;;;;;;;;;;19.20;64.21;100070.72;2081710;28;19916;-61
2021/10/22 03:32:06;;;;;;;;;;;;;;;19.18;64.07;100062.69;2086460;28;20303;-62
2021/10/22 03:33:06;;;;;;;;;;;;;;;19.18;64.09;100062.69;2083287;28;20095;-62
2021/10/22 03:34:07;;;;;;;;;;;;;;;19.18;64.11;100068.16;2085710;28;20318;-61
2021/10/22 03:35:07;;;;;;;;;;;;;;;19.18;64.15;100068.16;2088092;28;20351;-61
2021/10/22 03:36:07;;;;;;;;;;;;;;;19.18;64.01;100068.16;2083986;28;19912;-61
2021/10/22 03:37:08;;;;;;;;;;;;;;;19.17;64.09;100073.75;2088472;28;20520;-61
2021/10/22 03:38:08;;;;;;;;;;;;;;;19.18;64.11;100062.69;2083856;28;20676;-60
2021/10/22 03:39:08;;;;;;;;;;;;;;;19.18;64.17;100061.81;2085740;28;20581;-61
2021/10/22 03:40:09;;;;;;;;;;;;;;;19.19;64.26;100069.00;2084335;28;20030;-61
2021/10/22 03:41:10;;;;;;;;;;;;;;;19.19;64.13;100058.06;2084330;28;20339;-61
2021/10/22 03:42:10;;;;;;;;;;;;;;;19.19;64.09;100069.84;2078390;28;19917;-61
2021/10/22 03:43:10;;;;;;;;;;;;;;;19.20;64.00;100070.72;2085087;28;20504;-61
2021/10/22 03:44:10;;;;;;;;;;;;;;;19.19;64.13;100069.00;2085184;28;20089;-61
2021/10/22 03:45:11;;;;;;;;;;;;;;;19.20;64.01;100070.72;2085772;28;19912;-61
2021/10/22 03:46:11;;;;;;;;;;;;;;;19.20;63.99;100070.72;2082424;28;19916;-61
2021/10/22 03:47:12;;;;;;;;;;;;;;;19.19;64.09;100069.84;2080181;28;19970;-61
2021/10/22 03:48:12;;;;;;;;;;;;;;;19.20;64.04;100068.84;2085910;28;19923;-61
2021/10/22 03:49:12;;;;;;;;;;;;;;;19.20;64.00;100067.97;2083913;28;19962;-61
2021/10/22 03:50:13;;;;;;;;;;;;;;;19.19;64.02;100063.53;2085215;28;20041;-61
2021/10/22 03:51:14;;;;;;;;;;;;;;;19.19;64.03;100067.13;2085555;28;19927;-61
2021/10/22 03:52:14;;;;;;;;;;;;;;;19.20;64.00;100067.97;2085307;28;20437;-61
2021/10/22 03:53:14;;;;;;;;;;;;;;;19.19;63.94;100064.38;2084981;28;19916;-61
2021/10/22 03:54:14;;;;;;;;;;;;;;;19.19;64.02;100063.53;2083753;28;19916;-60
2021/10/22 03:55:15;;;;;;;;;;;;;;;19.19;64.13;100069.00;2085480;28;19916;-61
2021/10/22 03:56:16;;;;;;;;;;;;;;;19.19;63.98;100069.00;2083852;28;20589;-61
2021/10/22 03:57:16;;;;;;;;;;;;;;;19.18;63.90;100068.16;2085620;28;19922;-60
2021/10/22 03:58:19;;;;;;;;;;;;;;;19.17;63.93;100071.88;2084152;28;20370;-65
2021/10/22 03:59:19;;;;;;;;;;;;;;;19.18;63.96;100070.00;2082658;28;19921;-61
2021/10/22 04:00:20;;;;;;;;;;;;;;;19.18;63.93;100072.72;2086329;28;19916;-61
2021/10/22 04:01:20;;;;;;;;;;;;;;;19.18;63.93;100068.16;2082200;28;19967;-61
2021/10/22 04:02:21;;;;;;;;;;;;;;;19.18;64.04;100070.00;2084240;28;19927;-61
2021/10/22 04:03:21;;;;;;;;;;;;;;;19.18;63.96;100070.88;2086673;28;20422;-61
2021/10/22 04:04:27;;;;;;;;;;;;;;;19.17;63.95;100066.41;2081921;28;19948;-61
2021/10/22 04:05:27;;;;;;;;;;;;;;;19.17;63.97;100076.47;2085012;28;19916;-61
2021/10/22 04:06:28;;;;;;;;;;;;;;;19.18;64.00;100075.47;2083855;28;19923;-61
2021/10/22 04:07:28;;;;;;;;;;;;;;;19.18;63.94;100072.72;2084047;28;19968;-61
2021/10/22 04:08:29;;;;;;;;;;;;;;;19.17;63.93;100071.88;2085857;28;19916;-61
2021/10/22 04:09:31;;;;;;;;;;;;;;;19.17;63.87;100074.59;2082950;28;19923;-61
2021/10/22 04:10:32;;;;;;;;;;;;;;;19.17;63.92;100077.34;2084937;28;19940;-61
2021/10/22 04:11:32;;;;;;;;;;;;;;;19.18;63.96;100078.19;2084074;28;19916;-61
2021/10/22 04:12:33;;;;;;;;;;;;;;;19.17;63.92;100076.47;2083219;28;19955;-61
2021/10/22 04:13:33;;;;;;;;;;;;;;;19.17;63.93;100081.94;2078386;28;19923;-61
2021/10/22 04:14:34;;;;;;;;;;;;;;;19.16;64.00;100081.09;2081135;28;20001;-61
2021/10/22 04:15:35;;;;;;;;;;;;;;;19.18;63.86;100086.38;2074808;28;19955;-61
2021/10/22 04:16:35;;;;;;;;;;;;;;;19.17;63.86;100099.19;2076665;28;20039;-61
2021/10/22 04:17:35;;;;;;;;;;;;;;;19.17;64.00;100084.69;2081307;28;19927;-61
2021/10/22 04:18:36;;;;;;;;;;;;;;;19.17;63.92;100082.81;2086662;28;19927;-61
2021/10/22 04:19:37;;;;;;;;;;;;;;;19.17;63.85;100082.81;2084323;28;19917;-61
2021/10/22 04:20:37;;;;;;;;;;;;;;;19.17;63.88;100092.88;2084354;28;19955;-62
2021/10/22 04:21:37;;;;;;;;;;;;;;;19.16;63.97;100083.81;2084011;28;19909;-61
2021/10/22 04:22:38;;;;;;;;;;;;;;;19.17;63.90;100095.63;2084126;28;19905;-61
2021/10/22 04:23:38;;;;;;;;;;;;;;;19.16;63.89;100088.44;2085756;28;19912;-61
2021/10/22 04:24:38;;;;;;;;;;;;;;;19.16;63.86;100092.03;2085320;28;19920;-61
2021/10/22 04:25:39;;;;;;;;;;;;;;;19.15;63.95;100095.75;2084000;28;20001;-61
2021/10/22 04:26:39;;;;;;;;;;;;;;;19.16;63.89;100092.03;2079075;28;19947;-61
2021/10/22 04:27:39;;;;;;;;;;;;;;;19.16;63.81;100091.16;2081415;28;20401;-60
2021/10/22 04:28:40;;;;;;;;;;;;;;;19.16;64.04;100102.97;2082497;28;20326;-61
2021/10/22 04:29:40;;;;;;;;;;;;;;;19.16;63.98;100097.50;2083831;28;19908;-62
2021/10/22 04:30:41;;;;;;;;;;;;;;;19.16;64.02;100099.38;2082984;28;19927;-61
2021/10/22 04:31:41;;;;;;;;;;;;;;;19.15;63.97;100101.22;2086854;28;19909;-61
2021/10/22 04:32:41;;;;;;;;;;;;;;;19.15;64.07;100095.75;2082307;28;19994;-61
2021/10/22 04:33:42;;;;;;;;;;;;;;;19.16;64.10;100105.69;2086644;28;19924;-61
2021/10/22 04:34:42;;;;;;;;;;;;;;;19.16;64.12;100097.50;2085686;28;19958;-61
2021/10/22 04:35:42;;;;;;;;;;;;;;;19.15;64.07;100095.75;2081590;28;19912;-61
2021/10/22 04:36:43;;;;;;;;;;;;;;;19.15;64.19;100095.75;2086974;28;19975;-61
2021/10/22 04:37:50;;;;;;;;;;;;;;;19.15;64.10;100098.47;2082205;28;20393;-61
2021/10/22 04:41:29;;;;;;;;;;;;;;;19.14;64.12;100094.03;2079593;28;19921;-61
2021/10/22 04:42:30;;;;;;;;;;;;;;;19.15;64.04;100095.75;2079653;28;20947;-61
2021/10/22 04:43:30;;;;;;;;;;;;;;;19.15;63.97;100094.91;2086028;28;19912;-60
2021/10/22 04:44:31;;;;;;;;;;;;;;;19.15;63.97;100092.16;2083546;28;19921;-61
2021/10/22 04:45:32;;;;;;;;;;;;;;;19.14;64.03;100093.19;2083521;28;19963;-61
2021/10/22 04:46:33;;;;;;;;;;;;;;;19.14;63.94;100094.03;2085557;28;20159;-60
2021/10/22 04:47:33;;;;;;;;;;;;;;;19.14;63.96;100088.56;2081942;28;19916;-60
2021/10/22 04:48:33;;;;;;;;;;;;;;;19.14;63.94;100091.31;2084867;28;20298;-60
2021/10/22 04:49:34;;;;;;;;;;;;;;;19.13;63.89;100086.84;2085796;28;19947;-60
2021/10/22 04:50:40;;;;;;;;;;;;;;;19.14;63.83;100094.03;2081328;28;19913;-61
2021/10/22 04:51:41;;;;;;;;;;;;;;;19.14;63.94;100094.03;2084481;28;19923;-60
2021/10/22 04:52:41;;;;;;;;;;;;;;;19.13;63.89;100095.03;2083216;28;19911;-60
2021/10/22 04:53:41;;;;;;;;;;;;;;;19.14;63.91;100094.03;2084188;28;19944;-60
2021/10/22 04:54:42;;;;;;;;;;;;;;;19.14;63.86;100099.50;2084499;28;19908;-60
2021/10/22 04:55:42;;;;;;;;;;;;;;;19.13;63.85;100086.84;2085939;28;19912;-61
2021/10/22 04:56:43;;;;;;;;;;;;;;;19.13;63.92;100088.72;2079352;28;19931;-60
2021/10/22 04:57:43;;;;;;;;;;;;;;;19.13;63.88;100095.03;2082431;28;19925;-61
2021/10/22 04:58:45;;;;;;;;;;;;;;;19.13;63.87;100092.31;2077979;28;19955;-62
2021/10/22 04:59:45;;;;;;;;;;;;;;;19.13;63.90;100092.31;2077867;28;20425;-61
2021/10/22 05:00:46;;;;;;;;;;;;;;;19.14;63.83;100098.66;2078134;28;20326;-60
2021/10/22 05:01:46;;;;;;;;;;;;;;;19.14;63.78;100094.03;2077709;28;19913;-61
2021/10/22 05:02:47;;;;;;;;;;;;;;;19.14;63.87;100099.50;2080753;28;19904;-60
2021/10/22 05:03:47;;;;;;;;;;;;;;;19.13;63.83;100097.78;2082451;28;19920;-61
2021/10/22 05:04:48;;;;;;;;;;;;;;;19.13;63.83;100089.56;2082487;28;20347;-60
2021/10/22 05:05:48;;;;;;;;;;;;;;;19.13;63.83;100100.50;2084200;28;19917;-61
2021/10/22 05:06:48;;;;;;;;;;;;;;;19.13;63.80;100092.31;2076957;28;19975;-60
2021/10/22 05:07:49;;;;;;;;;;;;;;;19.13;63.82;100100.50;2074917;28;19944;-61
2021/10/22 05:08:49;;;;;;;;;;;;;;;19.13;63.83;100092.31;2075407;28;19909;-61
2021/10/22 05:09:50;;;;;;;;;;;;;;;19.12;63.83;100090.59;2077061;28;20339;-60
2021/10/22 05:10:50;;;;;;;;;;;;;;;19.13;63.89;100091.44;2076462;28;19956;-60
2021/10/22 05:11:50;;;;;;;;;;;;;;;19.13;63.78;100094.19;2077300;28;19971;-60
2021/10/22 05:12:50;;;;;;;;;;;;;;;19.14;63.86;100099.50;2073651;28;19928;-60
2021/10/22 05:13:51;;;;;;;;;;;;;;;19.12;63.82;100085.13;2076571;28;19908;-60